createdAt,value
2023-03-08T00:01:19.135Z,4.50
2023-03-08T00:03:46.126Z,4.50
2023-03-08T00:06:14.370Z,4.50
2023-03-08T00:08:41.342Z,4.40
2023-03-08T00:11:08.902Z,4.40
2023-03-08T00:13:35.739Z,4.40
2023-03-08T00:16:07.254Z,4.30
2023-03-08T00:18:34.845Z,4.30
2023-03-08T00:21:08.997Z,4.30
2023-03-08T00:23:35.685Z,4.30
2023-03-08T00:26:02.559Z,4.30
2023-03-08T00:28:29.382Z,4.30
2023-03-08T00:31:00.674Z,4.30
2023-03-08T00:33:28.057Z,4.20
2023-03-08T00:35:56.635Z,4.20
2023-03-08T00:38:23.510Z,4.20
2023-03-08T00:40:50.228Z,4.20
2023-03-08T00:43:16.951Z,4.20
2023-03-08T00:45:43.625Z,4.10
2023-03-08T00:48:10.350Z,4.10
2023-03-08T00:50:37.127Z,4.00
2023-03-08T00:53:03.836Z,4.00
2023-03-08T00:55:33.197Z,3.90
2023-03-08T00:58:00.271Z,3.90
2023-03-08T01:00:27.335Z,3.80
2023-03-08T01:02:55.043Z,3.80
2023-03-08T01:05:21.775Z,3.80
2023-03-08T01:07:48.465Z,3.80
2023-03-08T01:10:15.234Z,3.80
2023-03-08T01:12:43.099Z,3.80
2023-03-08T01:15:10.169Z,3.80
2023-03-08T01:17:37.062Z,3.70
2023-03-08T01:20:05.003Z,3.70
2023-03-08T01:22:32.101Z,3.80
2023-03-08T01:24:58.836Z,3.70
2023-03-08T01:27:27.914Z,3.80
2023-03-08T01:29:54.689Z,3.80
2023-03-08T01:32:21.551Z,3.80
2023-03-08T01:34:48.285Z,3.80
2023-03-08T01:37:14.966Z,3.80
2023-03-08T01:39:42.299Z,3.80
2023-03-08T01:42:09.045Z,3.80
2023-03-08T01:44:55.052Z,3.80
2023-03-08T01:47:26.460Z,3.80
2023-03-08T01:50:13.082Z,3.70
2023-03-08T01:52:49.175Z,3.70
2023-03-08T01:55:15.972Z,3.70
2023-03-08T01:57:45.566Z,3.60
2023-03-08T02:00:18.191Z,3.50
2023-03-08T02:03:01.486Z,3.40
2023-03-08T02:05:29.566Z,3.40
2023-03-08T02:08:03.555Z,3.40
2023-03-08T02:10:34.192Z,3.40
2023-03-08T02:13:01.179Z,3.30
2023-03-08T02:15:27.917Z,3.30
2023-03-08T02:17:57.111Z,3.30
2023-03-08T02:20:31.535Z,3.20
2023-03-08T02:23:17.595Z,3.20
2023-03-08T02:26:10.974Z,3.20
2023-03-08T02:28:37.652Z,3.20
2023-03-08T02:31:04.395Z,3.10
2023-03-08T02:33:32.221Z,3.10
2023-03-08T02:35:58.963Z,3.10
2023-03-08T02:38:26.987Z,3.10
2023-03-08T02:40:53.666Z,3.10
2023-03-08T02:43:21.201Z,3.10
2023-03-08T02:45:47.955Z,3.10
2023-03-08T02:48:14.974Z,3.20
2023-03-08T02:50:41.824Z,3.20
2023-03-08T02:53:08.628Z,3.20
2023-03-08T02:55:36.292Z,3.10
2023-03-08T02:58:08.469Z,3.00
2023-03-08T03:00:35.152Z,3.00
2023-03-08T03:03:02.144Z,3.00
2023-03-08T03:05:28.965Z,3.00
2023-03-08T03:07:58.668Z,2.90
2023-03-08T03:10:27.131Z,2.90
2023-03-08T03:12:54.115Z,3.00
2023-03-08T03:15:24.728Z,2.90
2023-03-08T03:17:55.269Z,3.00
2023-03-08T03:20:22.062Z,3.00
2023-03-08T03:22:48.752Z,3.00
2023-03-08T03:25:16.714Z,3.00
2023-03-08T03:27:45.361Z,2.90
2023-03-08T03:30:12.612Z,2.90
2023-03-08T03:32:40.156Z,2.90
2023-03-08T03:35:07.780Z,3.00
2023-03-08T03:37:36.450Z,3.00
2023-03-08T03:40:04.629Z,3.00
2023-03-08T03:42:31.460Z,2.90
2023-03-08T03:45:06.044Z,3.00
2023-03-08T03:47:33.160Z,3.00
2023-03-08T03:50:03.311Z,2.90
2023-03-08T03:52:38.511Z,2.90
2023-03-08T03:55:06.188Z,2.80
2023-03-08T03:57:32.992Z,2.80
2023-03-08T04:00:00.177Z,2.70
2023-03-08T04:02:28.261Z,2.60
2023-03-08T04:04:58.711Z,2.70
2023-03-08T04:07:29.417Z,2.70
2023-03-08T04:09:58.487Z,2.60
2023-03-08T04:12:25.603Z,2.50
2023-03-08T04:14:53.743Z,2.60
2023-03-08T04:17:21.418Z,2.60
2023-03-08T04:19:52.008Z,2.60
2023-03-08T04:22:19.989Z,2.70
2023-03-08T04:24:59.422Z,2.70
2023-03-08T04:27:38.119Z,2.70
2023-03-08T04:30:05.554Z,2.70
2023-03-08T04:32:32.831Z,2.60
2023-03-08T04:34:59.534Z,2.70
2023-03-08T04:37:28.414Z,2.70
2023-03-08T04:40:01.437Z,2.70
2023-03-08T04:42:31.304Z,2.70
2023-03-08T04:44:58.093Z,2.60
2023-03-08T04:47:25.765Z,2.70
2023-03-08T04:49:53.158Z,2.70
2023-03-08T04:52:19.979Z,2.70
2023-03-08T04:54:48.044Z,2.70
2023-03-08T04:57:20.922Z,2.70
2023-03-08T04:59:48.617Z,2.70
2023-03-08T05:02:15.368Z,2.80
2023-03-08T05:04:43.029Z,2.70
2023-03-08T05:07:09.772Z,2.70
2023-03-08T05:09:37.382Z,2.60
2023-03-08T05:12:04.357Z,2.60
2023-03-08T05:14:41.763Z,2.60
2023-03-08T05:17:09.278Z,2.60
2023-03-08T05:19:35.994Z,2.60
2023-03-08T05:22:05.541Z,2.60
2023-03-08T05:24:32.994Z,2.50
2023-03-08T05:27:05.431Z,2.50
2023-03-08T05:29:33.979Z,2.40
2023-03-08T05:32:02.252Z,2.50
2023-03-08T05:37:21.248Z,2.40
2023-03-08T05:39:48.442Z,2.40
2023-03-08T05:42:20.395Z,2.50
2023-03-08T05:44:47.580Z,2.40
2023-03-08T05:47:19.066Z,2.30
2023-03-08T05:49:45.827Z,2.30
2023-03-08T05:52:12.975Z,2.30
2023-03-08T05:54:40.043Z,2.20
2023-03-08T05:57:11.314Z,2.20
2023-03-08T05:59:38.546Z,2.20
2023-03-08T06:02:07.679Z,2.10
2023-03-08T06:04:42.343Z,2.00
2023-03-08T06:07:10.473Z,2.00
2023-03-08T06:09:41.939Z,2.00
2023-03-08T06:12:13.185Z,2.00
2023-03-08T06:14:39.882Z,1.90
2023-03-08T06:17:07.281Z,1.90
2023-03-08T06:19:36.780Z,1.80
2023-03-08T06:22:03.432Z,1.80
2023-03-08T06:24:30.731Z,1.80
2023-03-08T06:27:00.493Z,1.60
2023-03-08T06:29:27.287Z,1.60
2023-03-08T06:31:54.274Z,1.60
2023-03-08T06:34:22.266Z,1.60
2023-03-08T06:36:52.176Z,1.60
2023-03-08T06:39:20.207Z,1.60
2023-03-08T06:41:46.959Z,1.60
2023-03-08T06:44:14.288Z,1.60
2023-03-08T06:46:41.056Z,1.60
2023-03-08T06:49:07.898Z,1.60
2023-03-08T06:51:35.892Z,1.60
2023-03-08T06:54:02.838Z,1.60
2023-03-08T06:56:30.285Z,1.60
2023-03-08T06:58:57.063Z,1.60
2023-03-08T07:01:23.852Z,1.60
2023-03-08T07:03:52.391Z,1.60
2023-03-08T07:06:19.120Z,1.60
2023-03-08T07:08:45.802Z,1.60
2023-03-08T07:11:12.525Z,1.60
2023-03-08T07:13:39.314Z,1.60
2023-03-08T07:16:08.254Z,1.60
2023-03-08T07:18:35.499Z,1.60
2023-03-08T07:21:02.310Z,1.60
2023-03-08T07:23:29.522Z,1.70
2023-03-08T07:25:56.288Z,1.60
2023-03-08T07:28:23.165Z,1.60
2023-03-08T07:30:51.192Z,1.60
2023-03-08T07:33:20.851Z,1.60
2023-03-08T07:35:47.828Z,1.60
2023-03-08T07:38:14.864Z,1.60
2023-03-08T07:40:41.854Z,1.60
2023-03-08T07:43:08.780Z,1.70
2023-03-08T07:45:54.695Z,1.80
2023-03-08T07:48:24.539Z,1.80
2023-03-08T07:50:53.100Z,1.80
2023-03-08T07:53:20.198Z,1.80
2023-03-08T07:55:47.070Z,1.90
2023-03-08T07:58:14.133Z,1.90
2023-03-08T08:00:40.909Z,2.10
2023-03-08T08:03:07.649Z,2.00
2023-03-08T08:05:36.119Z,2.10
2023-03-08T08:08:04.894Z,2.00
2023-03-08T08:10:31.979Z,1.90
2023-03-08T08:12:58.711Z,1.90
2023-03-08T08:15:26.825Z,1.80
2023-03-08T08:17:57.375Z,2.00
2023-03-08T08:20:35.296Z,1.90
2023-03-08T08:23:14.666Z,1.90
2023-03-08T08:44:27.025Z,1.90
2023-03-08T08:46:55.174Z,1.90
2023-03-08T08:49:24.443Z,2.00
2023-03-08T08:51:53.695Z,2.20
2023-03-08T08:54:20.752Z,2.10
2023-03-08T08:56:47.567Z,2.20
2023-03-08T08:59:16.921Z,2.20
2023-03-08T09:01:45.136Z,2.10
2023-03-08T09:04:13.274Z,2.20
2023-03-08T09:06:40.196Z,2.20
2023-03-08T09:09:07.109Z,2.20
2023-03-08T09:11:48.429Z,2.30
2023-03-08T09:14:21.997Z,2.40
2023-03-08T09:16:49.042Z,2.30
2023-03-08T09:19:20.535Z,2.40
2023-03-08T09:21:48.699Z,2.30
2023-03-08T09:24:18.751Z,2.20
2023-03-08T09:26:46.806Z,2.30
2023-03-08T09:29:14.613Z,2.30
2023-03-08T09:31:43.542Z,2.40
2023-03-08T09:34:11.428Z,2.40
2023-03-08T09:36:41.624Z,2.30
2023-03-08T09:39:10.109Z,2.40
2023-03-08T09:41:51.939Z,2.30
2023-03-08T09:44:57.254Z,2.50
2023-03-08T09:47:28.514Z,2.50
2023-03-08T09:49:56.170Z,2.40
2023-03-08T09:52:30.842Z,2.20
2023-03-08T09:55:01.119Z,2.30
2023-03-08T09:57:29.157Z,2.40
2023-03-08T09:59:57.587Z,2.30
2023-03-08T10:02:49.939Z,2.30
2023-03-08T10:05:23.576Z,2.40
2023-03-08T10:07:58.250Z,2.60
2023-03-08T10:10:33.678Z,2.60
2023-03-08T10:13:18.541Z,2.60
2023-03-08T10:15:49.059Z,2.70
2023-03-08T10:18:53.531Z,2.80
2023-03-08T10:21:23.096Z,2.90
2023-03-08T10:24:04.161Z,3.60
2023-03-08T10:26:31.136Z,4.10
2023-03-08T10:29:01.091Z,4.30
2023-03-08T10:31:29.536Z,4.30
2023-03-08T10:34:26.017Z,4.40
2023-03-08T10:36:59.529Z,4.40
2023-03-08T10:39:26.332Z,4.60
2023-03-08T10:41:57.368Z,4.80
2023-03-08T10:44:42.823Z,4.90
2023-03-08T10:47:32.866Z,5.10
2023-03-08T10:50:17.971Z,5.20
2023-03-08T10:52:49.174Z,5.40
2023-03-08T10:55:32.001Z,5.50
2023-03-08T10:58:00.860Z,5.60
2023-03-08T11:00:38.186Z,5.60
2023-03-08T11:03:12.567Z,5.70
2023-03-08T11:05:39.292Z,5.90
2023-03-08T11:08:18.551Z,5.80
2023-03-08T11:10:45.360Z,6.10
2023-03-08T11:13:26.218Z,6.10
2023-03-08T11:15:56.934Z,6.10
2023-03-08T11:18:50.221Z,6.10
2023-03-08T11:21:26.536Z,6.20
2023-03-08T11:24:06.649Z,6.20
2023-03-08T11:26:44.950Z,6.20
2023-03-08T11:29:34.588Z,6.30
2023-03-08T11:32:04.941Z,6.40
2023-03-08T11:34:40.761Z,6.50
2023-03-08T11:37:15.293Z,6.70
2023-03-08T11:39:48.225Z,6.80
2023-03-08T11:42:24.847Z,6.90
2023-03-08T11:45:11.837Z,7.10
2023-03-08T11:48:04.806Z,7.10
2023-03-08T11:50:39.546Z,7.20
2023-03-08T11:53:34.177Z,7.30
2023-03-08T11:56:07.217Z,7.30
2023-03-08T11:58:49.248Z,7.20
2023-03-08T12:01:19.001Z,7.20
2023-03-08T12:03:47.928Z,7.30
2023-03-08T12:06:29.150Z,7.40
2023-03-08T12:09:04.801Z,7.40
2023-03-08T12:11:41.867Z,7.30
2023-03-08T15:50:41.210Z,8.40
2023-03-08T15:53:07.923Z,8.40
2023-03-08T15:55:34.692Z,8.40
2023-03-08T15:58:01.367Z,8.40
2023-03-08T16:00:28.332Z,8.40
2023-03-08T16:02:55.280Z,8.30
2023-03-08T16:05:24.028Z,8.50
2023-03-08T16:08:01.754Z,8.50
2023-03-08T16:10:29.978Z,8.50
2023-03-08T16:12:56.696Z,8.50
2023-03-08T16:15:23.592Z,8.50
2023-03-08T16:17:50.274Z,8.60
2023-03-08T16:20:17.193Z,8.60
2023-03-08T16:22:45.288Z,8.60
2023-03-08T16:25:11.954Z,8.70
2023-03-08T16:27:38.729Z,8.70
2023-03-08T16:30:06.009Z,8.80
2023-03-08T16:32:32.913Z,8.80
2023-03-08T16:34:59.986Z,8.80
2023-03-08T16:37:26.898Z,8.80
2023-03-08T16:39:54.622Z,8.90
2023-03-08T16:42:21.559Z,8.90
2023-03-08T16:44:50.181Z,8.80
2023-03-08T16:47:17.040Z,8.80
2023-03-08T16:49:43.863Z,8.90
2023-03-08T16:52:10.600Z,8.90
2023-03-08T16:54:37.284Z,8.90
2023-03-08T16:57:18.238Z,8.90
2023-03-08T16:59:46.012Z,8.90
2023-03-08T17:02:18.195Z,9.00
2023-03-08T17:04:45.222Z,9.00
2023-03-08T17:07:12.173Z,9.00
2023-03-08T17:09:39.222Z,9.10
2023-03-08T17:12:06.809Z,9.10
2023-03-08T17:14:34.777Z,9.10
2023-03-08T17:17:01.885Z,9.10
2023-03-08T17:19:28.599Z,9.00
2023-03-08T17:21:55.680Z,9.00
2023-03-08T17:24:22.558Z,8.90
2023-03-08T17:26:50.621Z,8.90
2023-03-08T17:29:21.366Z,8.80
2023-03-08T17:31:48.316Z,8.90
2023-03-08T17:34:22.220Z,8.80
2023-03-08T17:37:09.744Z,8.70
2023-03-08T17:39:42.207Z,8.50
2023-03-08T17:42:14.224Z,8.40
2023-03-08T17:44:46.788Z,8.20
2023-03-08T17:47:13.893Z,8.20
2023-03-08T17:49:52.575Z,8.10
2023-03-08T17:52:27.936Z,8.10
2023-03-08T17:59:06.529Z,8.20
2023-03-08T18:01:33.520Z,8.10
2023-03-08T18:04:04.207Z,8.10
2023-03-08T18:06:40.643Z,8.10
2023-03-08T18:13:01.264Z,8.10
2023-03-08T18:15:28.080Z,8.10
2023-03-08T18:17:54.919Z,8.20
2023-03-08T18:20:23.709Z,8.30
2023-03-08T18:22:50.823Z,8.50
2023-03-08T18:25:17.820Z,8.60
2023-03-08T18:27:44.640Z,8.60
2023-03-08T18:30:14.340Z,8.70
2023-03-08T18:32:43.497Z,8.70
2023-03-08T18:35:13.172Z,8.60
2023-03-08T18:37:43.866Z,8.60
2023-03-08T18:40:11.495Z,8.70
2023-03-08T18:42:42.087Z,8.60
2023-03-08T18:45:10.348Z,8.60
2023-03-08T18:47:37.329Z,8.60
2023-03-08T18:50:07.875Z,8.60
2023-03-08T18:52:34.852Z,8.60
2023-03-08T18:55:01.588Z,8.60
2023-03-08T18:57:28.332Z,8.50
2023-03-08T18:59:55.103Z,8.50
2023-03-08T19:02:26.843Z,8.60
2023-03-08T19:04:54.970Z,8.60
2023-03-08T19:07:21.802Z,8.60
2023-03-08T19:09:48.578Z,8.60
2023-03-08T19:12:15.743Z,8.60
2023-03-08T19:14:42.556Z,8.50
2023-03-08T19:17:09.229Z,8.60
2023-03-08T19:19:35.962Z,8.50
2023-03-08T19:22:02.802Z,8.50
2023-03-08T19:24:29.508Z,8.60
2023-03-08T19:26:58.515Z,8.60
2023-03-08T19:29:29.760Z,8.60
2023-03-08T19:32:01.439Z,8.60
2023-03-08T19:34:35.872Z,8.60
2023-03-08T19:37:03.004Z,8.60
2023-03-08T19:39:31.318Z,8.60
2023-03-08T19:42:00.003Z,8.50
2023-03-08T19:44:27.426Z,8.50
2023-03-08T19:46:54.312Z,8.50
2023-03-08T19:49:22.724Z,8.50
2023-03-08T19:51:50.633Z,8.50
2023-03-08T19:54:18.056Z,8.50
2023-03-08T19:56:44.733Z,8.50
2023-03-08T19:59:11.471Z,8.50
2023-03-08T20:01:38.436Z,8.50
2023-03-08T20:04:05.436Z,8.50
2023-03-08T20:06:34.375Z,8.50
2023-03-08T20:09:01.790Z,8.50
2023-03-08T20:11:28.563Z,8.50
2023-03-08T20:13:55.260Z,8.50
2023-03-08T20:16:22.460Z,8.50
2023-03-08T20:18:49.531Z,8.50
2023-03-08T20:21:16.902Z,8.50
2023-03-08T20:23:43.624Z,8.50
2023-03-08T20:26:10.283Z,8.50
2023-03-08T20:28:36.965Z,8.40
2023-03-08T20:31:11.057Z,8.50
2023-03-08T20:33:37.839Z,8.60
2023-03-08T20:36:04.844Z,8.50
2023-03-08T20:38:31.613Z,8.50
2023-03-08T20:40:59.566Z,8.60
2023-03-08T20:43:26.259Z,8.70
2023-03-08T20:45:53.046Z,8.80
2023-03-08T20:48:19.772Z,8.80
2023-03-08T20:50:46.474Z,8.70
2023-03-08T20:53:13.158Z,8.70
2023-03-08T20:55:39.954Z,8.80
2023-03-08T20:58:06.654Z,8.70
2023-03-08T21:00:33.685Z,8.70
2023-03-08T21:03:00.557Z,8.70
2023-03-08T21:05:27.340Z,8.70
2023-03-08T21:07:54.070Z,8.80
2023-03-08T21:10:20.780Z,8.80
2023-03-08T21:12:47.445Z,8.80
2023-03-08T21:15:14.157Z,8.70
2023-03-08T21:17:40.912Z,8.70
2023-03-08T21:20:09.386Z,8.80
2023-03-08T21:22:36.077Z,8.70
2023-03-08T21:25:02.831Z,8.70
2023-03-08T21:27:29.496Z,8.70
2023-03-08T21:29:56.205Z,8.70
2023-03-08T21:32:23.076Z,8.70
2023-03-08T21:34:50.104Z,8.70
2023-03-08T21:37:16.963Z,8.60
2023-03-08T21:39:43.625Z,8.60
2023-03-08T21:42:10.291Z,8.60
2023-03-08T21:44:37.482Z,8.50
2023-03-08T21:47:04.223Z,8.50
2023-03-08T21:49:31.165Z,8.50
2023-03-08T21:51:58.414Z,8.60
2023-03-08T21:54:26.343Z,8.60
2023-03-08T21:56:53.094Z,8.60
2023-03-08T21:59:19.984Z,8.60
2023-03-08T22:01:48.196Z,8.60
2023-03-08T22:04:15.599Z,8.70
2023-03-08T22:06:42.260Z,8.80
2023-03-08T22:09:09.692Z,8.70
2023-03-08T22:11:36.436Z,8.70
2023-03-08T22:14:03.187Z,8.80
2023-03-08T22:16:30.261Z,8.90
2023-03-08T22:18:59.666Z,8.90
2023-03-08T22:21:26.823Z,8.90
2023-03-08T22:23:54.241Z,9.00
2023-03-08T22:26:21.339Z,8.90
2023-03-08T22:28:48.065Z,9.00
2023-03-08T22:31:16.903Z,9.10
2023-03-08T22:33:43.653Z,9.10
2023-03-08T22:36:11.614Z,9.20
2023-03-08T22:38:38.516Z,9.20
2023-03-08T22:41:12.761Z,9.10
2023-03-08T22:43:42.668Z,9.10
2023-03-08T22:46:10.719Z,9.10
2023-03-08T22:48:37.476Z,9.00
2023-03-08T22:51:10.820Z,9.10
2023-03-08T22:53:39.239Z,9.00
2023-03-08T22:56:06.941Z,9.00
2023-03-08T22:58:33.740Z,9.00
2023-03-08T23:01:00.486Z,8.90
2023-03-08T23:03:27.176Z,8.90
2023-03-08T23:05:54.062Z,8.80
2023-03-08T23:08:22.649Z,8.80
2023-03-08T23:10:50.610Z,8.80
2023-03-08T23:13:32.725Z,8.80
2023-03-08T23:16:00.430Z,8.80
2023-03-08T23:18:27.135Z,8.80
2023-03-08T23:20:53.888Z,8.80
2023-03-08T23:23:24.742Z,8.80
2023-03-08T23:25:51.690Z,8.70
2023-03-08T23:28:18.657Z,8.70
2023-03-08T23:30:45.331Z,8.70
2023-03-08T23:33:12.122Z,8.60
2023-03-08T23:35:38.826Z,8.60
2023-03-08T23:38:05.514Z,8.50
2023-03-08T23:40:32.417Z,8.50
2023-03-08T23:42:59.071Z,8.50
2023-03-08T23:45:25.737Z,8.50
2023-03-08T23:47:52.657Z,8.50
2023-03-08T23:50:19.336Z,8.50
2023-03-08T23:52:46.148Z,8.40
2023-03-08T23:55:12.866Z,8.40
2023-03-08T23:57:39.591Z,8.40
